Bewdley, United Kingdom
Current Conditions -  °F | °C
As of 6:20 PM on Saturday 25 Oct 2014 (Local Time) from EGBB Reporting Station
Broken Clouds Broken Clouds  
Wind Chill: 54°   Ceiling: 4800
Heat Index: 54°   Visibility: 6mi
Dew Point: 50°   Wind: 6mph
Humidity: 88%   Direction: 180°S
Pressure: 30"   Gusts: NA
Location:  52.38°N, 2.32°W
Report Text: EGBB 251720Z 18005KT 9999 SCT014 BKN048 12/10 Q1016
Loading
Personal Weather Stations






























Interactive Weather Map
Tropical Storm Tracking
New forecast layout! Learn more

10-Day Weather Forecast

Advertisements
Track Severe Weather on mobile